sensor_id;sensor_type;location;lat;lon;timestamp;pressure;altitude;pressure_sealevel;temperature;humidity
44198;BME280;30157;55.512;37.764;2023-09-18T00:02:25;100558.16;;;9.10;81.86
44198;BME280;30157;55.512;37.764;2023-09-18T00:04:52;100593.66;;;9.22;81.84
44198;BME280;30157;55.512;37.764;2023-09-18T00:07:18;100555.44;;;9.01;81.87
44198;BME280;30157;55.512;37.764;2023-09-18T00:09:43;100549.25;;;8.91;81.66
44198;BME280;30157;55.512;37.764;2023-09-18T00:12:09;100584.09;;;9.16;81.76
44198;BME280;30157;55.512;37.764;2023-09-18T00:14:38;100394.38;;;7.96;81.76
44198;BME280;30157;55.512;37.764;2023-09-18T00:17:03;100515.31;;;8.69;81.69
44198;BME280;30157;55.512;37.764;2023-09-18T00:19:29;100586.63;;;9.10;81.83
44198;BME280;30157;55.512;37.764;2023-09-18T00:21:56;100563.09;;;8.93;82.02
44198;BME280;30157;55.512;37.764;2023-09-18T00:24:27;100414.31;;;8.03;81.77
44198;BME280;30157;55.512;37.764;2023-09-18T00:26:53;100586.56;;;9.05;82.17
44198;BME280;30157;55.512;37.764;2023-09-18T00:29:20;100570.97;;;9.01;82.32
44198;BME280;30157;55.512;37.764;2023-09-18T00:31:46;100554.38;;;8.88;82.24
44198;BME280;30157;55.512;37.764;2023-09-18T00:34:12;100551.00;;;8.92;82.08
44198;BME280;30157;55.512;37.764;2023-09-18T00:36:37;100575.25;;;9.00;82.15
44198;BME280;30157;55.512;37.764;2023-09-18T00:39:04;100590.97;;;9.13;82.46
44198;BME280;30157;55.512;37.764;2023-09-18T00:41:30;100549.28;;;8.93;82.56
44198;BME280;30157;55.512;37.764;2023-09-18T00:43:56;100571.16;;;9.16;82.24
44198;BME280;30157;55.512;37.764;2023-09-18T00:46:22;100553.81;;;9.11;82.18
44198;BME280;30157;55.512;37.764;2023-09-18T00:48:49;100574.78;;;9.29;81.85
44198;BME280;30157;55.512;37.764;2023-09-18T00:51:16;100496.47;;;8.78;81.74
44198;BME280;30157;55.512;37.764;2023-09-18T00:53:44;100400.84;;;8.26;81.78
44198;BME280;30157;55.512;37.764;2023-09-18T00:56:11;100553.84;;;9.14;81.66
44198;BME280;30157;55.512;37.764;2023-09-18T00:58:38;100550.56;;;9.25;81.93
44198;BME280;30157;55.512;37.764;2023-09-18T01:01:04;100569.78;;;9.45;81.78
44198;BME280;30157;55.512;37.764;2023-09-18T01:03:30;100579.44;;;9.56;81.73
44198;BME280;30157;55.512;37.764;2023-09-18T01:05:56;100467.41;;;9.01;81.50
44198;BME280;30157;55.512;37.764;2023-09-18T01:08:23;100382.31;;;8.56;81.38
44198;BME280;30157;55.512;37.764;2023-09-18T01:13:38;100571.03;;;9.79;81.27
44198;BME280;30157;55.512;37.764;2023-09-18T01:16:11;100557.13;;;9.69;80.94
44198;BME280;30157;55.512;37.764;2023-09-18T01:18:49;100551.94;;;9.71;81.20
44198;BME280;30157;55.512;37.764;2023-09-18T01:21:17;100464.16;;;9.22;81.03
44198;BME280;30157;55.512;37.764;2023-09-18T01:23:43;100551.84;;;9.63;81.57
44198;BME280;30157;55.512;37.764;2023-09-18T01:26:09;100546.69;;;9.66;81.90
44198;BME280;30157;55.512;37.764;2023-09-18T01:28:35;100457.28;;;9.21;81.97
44198;BME280;30157;55.512;37.764;2023-09-18T01:31:01;100463.41;;;9.29;81.93
44198;BME280;30157;55.512;37.764;2023-09-18T01:33:28;100509.38;;;9.50;82.27
44198;BME280;30157;55.512;37.764;2023-09-18T01:35:55;100536.41;;;9.72;82.24
44198;BME280;30157;55.512;37.764;2023-09-18T01:38:23;100518.97;;;9.57;82.36
44198;BME280;30157;55.512;37.764;2023-09-18T01:40:52;100556.41;;;9.84;82.54
44198;BME280;30157;55.512;37.764;2023-09-18T01:43:19;100519.09;;;9.71;82.45
44198;BME280;30157;55.512;37.764;2023-09-18T01:45:45;100499.16;;;9.63;82.53
44198;BME280;30157;55.512;37.764;2023-09-18T01:48:11;100491.31;;;9.58;82.64
44198;BME280;30157;55.512;37.764;2023-09-18T01:50:37;100489.56;;;9.57;82.69
44198;BME280;30157;55.512;37.764;2023-09-18T01:53:05;100559.88;;;9.88;82.58
44198;BME280;30157;55.512;37.764;2023-09-18T01:55:32;100449.63;;;9.33;82.41
44198;BME280;30157;55.512;37.764;2023-09-18T01:57:59;100511.31;;;9.71;82.44
44198;BME280;30157;55.512;37.764;2023-09-18T02:00:25;100528.72;;;9.82;82.48
44198;BME280;30157;55.512;37.764;2023-09-18T02:02:53;100530.41;;;9.81;82.46
44198;BME280;30157;55.512;37.764;2023-09-18T02:05:19;100511.31;;;9.71;82.34
44198;BME280;30157;55.512;37.764;2023-09-18T02:07:45;100513.06;;;9.69;82.48
44198;BME280;30157;55.512;37.764;2023-09-18T02:10:11;100428.00;;;9.30;82.70
44198;BME280;30157;55.512;37.764;2023-09-18T02:12:40;100507.97;;;9.80;82.51
44198;BME280;30157;55.512;37.764;2023-09-18T02:15:06;100497.59;;;9.80;82.27
44198;BME280;30157;55.512;37.764;2023-09-18T02:17:32;100519.28;;;9.91;82.80
44198;BME280;30157;55.512;37.764;2023-09-18T02:19:59;100491.56;;;9.83;82.45
44198;BME280;30157;55.512;37.764;2023-09-18T02:22:34;100498.47;;;9.81;82.62
44198;BME280;30157;55.512;37.764;2023-09-18T02:25:00;100514.09;;;9.87;82.68
44198;BME280;30157;55.512;37.764;2023-09-18T02:27:26;100516.63;;;9.85;82.64
44198;BME280;30157;55.512;37.764;2023-09-18T02:29:52;100486.19;;;9.63;82.84
44198;BME280;30157;55.512;37.764;2023-09-18T02:32:19;100481.97;;;9.72;83.04
44198;BME280;30157;55.512;37.764;2023-09-18T02:34:45;100424.69;;;9.43;82.74
44198;BME280;30157;55.512;37.764;2023-09-18T02:37:11;100512.41;;;9.95;83.04
44198;BME280;30157;55.512;37.764;2023-09-18T02:39:36;100460.34;;;9.70;83.04
44198;BME280;30157;55.512;37.764;2023-09-18T02:42:02;100268.41;;;8.52;82.70
44198;BME280;30157;55.512;37.764;2023-09-18T02:44:28;100504.59;;;9.92;82.72
44198;BME280;30157;55.512;37.764;2023-09-18T02:46:54;100468.09;;;9.69;83.12
44198;BME280;30157;55.512;37.764;2023-09-18T02:49:19;100490.66;;;9.79;83.13
44198;BME280;30157;55.512;37.764;2023-09-18T02:51:46;100499.38;;;9.89;83.22
44198;BME280;30157;55.512;37.764;2023-09-18T02:54:12;100496.81;;;9.92;83.17
44198;BME280;30157;55.512;37.764;2023-09-18T02:56:38;100477.72;;;9.84;83.22
44198;BME280;30157;55.512;37.764;2023-09-18T02:59:04;100476.03;;;9.83;83.23
44198;BME280;30157;55.512;37.764;2023-09-18T03:01:30;100458.66;;;9.79;83.32
44198;BME280;30157;55.512;37.764;2023-09-18T03:03:56;100379.69;;;9.35;83.38
44198;BME280;30157;55.512;37.764;2023-09-18T03:06:21;100497.81;;;10.05;83.58
44198;BME280;30157;55.512;37.764;2023-09-18T03:08:47;100475.28;;;9.98;83.58
44198;BME280;30157;55.512;37.764;2023-09-18T03:11:14;100484.84;;;10.09;83.44
44198;BME280;30157;55.512;37.764;2023-09-18T03:13:44;100458.00;;;10.01;83.32
44198;BME280;30157;55.512;37.764;2023-09-18T03:16:12;100450.22;;;10.03;83.30
44198;BME280;30157;55.512;37.764;2023-09-18T03:18:39;100484.09;;;10.23;83.13
44198;BME280;30157;55.512;37.764;2023-09-18T03:21:04;100418.94;;;9.81;83.00
44198;BME280;30157;55.512;37.764;2023-09-18T03:23:31;100452.81;;;10.01;83.27
44198;BME280;30157;55.512;37.764;2023-09-18T03:25:56;100487.50;;;10.13;83.46
44198;BME280;30157;55.512;37.764;2023-09-18T03:28:22;100440.56;;;9.80;83.63
44198;BME280;30157;55.512;37.764;2023-09-18T03:30:49;100470.97;;;10.00;83.78
44198;BME280;30157;55.512;37.764;2023-09-18T03:33:18;100450.94;;;9.83;83.91
44198;BME280;30157;55.512;37.764;2023-09-18T03:35:52;100387.56;;;9.44;83.79
44198;BME280;30157;55.512;37.764;2023-09-18T03:38:22;100464.78;;;9.85;83.95
44198;BME280;30157;55.512;37.764;2023-09-18T03:40:49;100439.66;;;9.78;84.13
44198;BME280;30157;55.512;37.764;2023-09-18T03:43:14;100451.88;;;9.90;84.48
44198;BME280;30157;55.512;37.764;2023-09-18T03:45:41;100372.00;;;9.44;85.01
44198;BME280;30157;55.512;37.764;2023-09-18T03:48:08;100452.72;;;9.90;85.53
44198;BME280;30157;55.512;37.764;2023-09-18T03:50:34;100463.84;;;9.79;86.57
44198;BME280;30157;55.512;37.764;2023-09-18T03:53:00;100388.31;;;9.35;86.81
44198;BME280;30157;55.512;37.764;2023-09-18T03:55:26;100478.72;;;9.95;86.82
44198;BME280;30157;55.512;37.764;2023-09-18T03:57:52;100484.91;;;10.14;86.55
44198;BME280;30157;55.512;37.764;2023-09-18T04:00:20;100459.84;;;10.16;85.79
44198;BME280;30157;55.512;37.764;2023-09-18T04:02:46;100479.91;;;10.36;85.34
44198;BME280;30157;55.512;37.764;2023-09-18T04:05:12;100374.91;;;9.83;84.92
44198;BME280;30157;55.512;37.764;2023-09-18T04:07:38;100432.25;;;10.29;84.80
44198;BME280;30157;55.512;37.764;2023-09-18T04:10:04;100493.97;;;10.76;84.69
44198;BME280;30157;55.512;37.764;2023-09-18T04:12:32;100443.66;;;10.48;84.57
44198;BME280;30157;55.512;37.764;2023-09-18T04:14:58;100499.25;;;10.90;84.35
44198;BME280;30157;55.512;37.764;2023-09-18T04:17:24;100435.91;;;10.62;84.22
44198;BME280;30157;55.512;37.764;2023-09-18T04:19:51;100489.78;;;10.97;84.11
44198;BME280;30157;55.512;37.764;2023-09-18T04:22:17;100471.50;;;10.85;84.33
44198;BME280;30157;55.512;37.764;2023-09-18T04:24:43;100496.66;;;10.97;84.50
44198;BME280;30157;55.512;37.764;2023-09-18T04:27:10;100484.56;;;11.03;84.53
44198;BME280;30157;55.512;37.764;2023-09-18T04:29:36;100464.66;;;10.99;84.48
44198;BME280;30157;55.512;37.764;2023-09-18T04:32:03;100485.50;;;11.15;84.36
44198;BME280;30157;55.512;37.764;2023-09-18T04:34:30;100477.69;;;11.05;84.38
44198;BME280;30157;55.512;37.764;2023-09-18T04:36:56;100470.72;;;11.01;84.34
44198;BME280;30157;55.512;37.764;2023-09-18T04:39:22;100484.56;;;10.99;85.08
44198;BME280;30157;55.512;37.764;2023-09-18T04:41:48;100437.72;;;10.75;85.17
44198;BME280;30157;55.512;37.764;2023-09-18T04:44:14;100387.47;;;10.59;84.74
44198;BME280;30157;55.512;37.764;2023-09-18T04:46:40;100452.50;;;10.95;84.85
44198;BME280;30157;55.512;37.764;2023-09-18T04:49:09;100482.03;;;11.17;84.83
44198;BME280;30157;55.512;37.764;2023-09-18T04:51:38;100475.97;;;11.15;84.65
44198;BME280;30157;55.512;37.764;2023-09-18T04:54:05;100449.97;;;11.10;84.27
44198;BME280;30157;55.512;37.764;2023-09-18T04:56:32;100476.03;;;11.35;84.39
44198;BME280;30157;55.512;37.764;2023-09-18T04:58:58;100482.06;;;11.28;84.88
44198;BME280;30157;55.512;37.764;2023-09-18T05:01:24;100473.41;;;11.26;85.29
44198;BME280;30157;55.512;37.764;2023-09-18T05:03:52;100478.63;;;11.34;85.45
44198;BME280;30157;55.512;37.764;2023-09-18T05:06:18;100473.41;;;11.29;85.69
44198;BME280;30157;55.512;37.764;2023-09-18T05:08:44;100474.25;;;11.28;86.07
44198;BME280;30157;55.512;37.764;2023-09-18T05:11:10;100466.50;;;11.33;85.91
44198;BME280;30157;55.512;37.764;2023-09-18T05:13:37;100426.59;;;11.20;85.84
44198;BME280;30157;55.512;37.764;2023-09-18T05:16:03;100455.25;;;11.49;85.27
44198;BME280;30157;55.512;37.764;2023-09-18T05:18:29;100384.16;;;11.12;85.26
44198;BME280;30157;55.512;37.764;2023-09-18T05:20:55;100478.69;;;11.65;85.33
44198;BME280;30157;55.512;37.764;2023-09-18T05:23:21;100368.59;;;11.15;84.87
44198;BME280;30157;55.512;37.764;2023-09-18T05:25:47;100470.00;;;11.76;85.15
44198;BME280;30157;55.512;37.764;2023-09-18T05:28:13;100457.03;;;11.78;84.77
44198;BME280;30157;55.512;37.764;2023-09-18T05:30:39;100469.19;;;11.91;84.44
44198;BME280;30157;55.512;37.764;2023-09-18T05:33:07;100478.69;;;11.94;84.29
44198;BME280;30157;55.512;37.764;2023-09-18T05:35:39;100427.53;;;11.79;84.22
44198;BME280;30157;55.512;37.764;2023-09-18T05:38:05;100447.53;;;12.05;83.66
44198;BME280;30157;55.512;37.764;2023-09-18T05:40:32;100476.97;;;12.19;83.38
44198;BME280;30157;55.512;37.764;2023-09-18T05:42:59;100412.81;;;11.89;83.32
44198;BME280;30157;55.512;37.764;2023-09-18T05:45:25;100450.97;;;12.19;83.33
44198;BME280;30157;55.512;37.764;2023-09-18T05:47:53;100467.44;;;12.40;83.21
44198;BME280;30157;55.512;37.764;2023-09-18T05:50:27;100469.09;;;12.64;82.65
44198;BME280;30157;55.512;37.764;2023-09-18T05:52:55;100449.97;;;12.71;81.84
44198;BME280;30157;55.512;37.764;2023-09-18T05:55:25;100467.22;;;13.05;81.27
44198;BME280;30157;55.512;37.764;2023-09-18T05:57:51;100365.84;;;12.49;81.01
44198;BME280;30157;55.512;37.764;2023-09-18T06:00:17;100443.66;;;13.20;80.69
44198;BME280;30157;55.512;37.764;2023-09-18T06:02:43;100480.94;;;14.50;77.45
44198;BME280;30157;55.512;37.764;2023-09-18T06:05:11;100461.47;;;15.47;75.20
44198;BME280;30157;55.512;37.764;2023-09-18T06:07:37;100429.59;;;16.29;72.18
44198;BME280;30157;55.512;37.764;2023-09-18T06:10:03;100441.56;;;17.29;68.33
44198;BME280;30157;55.512;37.764;2023-09-18T06:12:30;100447.44;;;17.39;66.02
44198;BME280;30157;55.512;37.764;2023-09-18T06:14:56;100454.69;;;17.67;65.49
44198;BME280;30157;55.512;37.764;2023-09-18T06:17:22;100400.38;;;17.69;64.91
44198;BME280;30157;55.512;37.764;2023-09-18T06:19:48;100410.28;;;18.26;63.04
44198;BME280;30157;55.512;37.764;2023-09-18T06:22:14;100406.13;;;18.82;62.64
44198;BME280;30157;55.512;37.764;2023-09-18T06:24:40;100438.41;;;19.45;59.88
44198;BME280;30157;55.512;37.764;2023-09-18T06:27:06;100452.78;;;19.62;58.54
44198;BME280;30157;55.512;37.764;2023-09-18T06:29:33;100471.13;;;19.65;57.99
44198;BME280;30157;55.512;37.764;2023-09-18T06:31:59;100454.47;;;19.93;57.45
44198;BME280;30157;55.512;37.764;2023-09-18T06:34:25;100397.16;;;19.73;56.83
44198;BME280;30157;55.512;37.764;2023-09-18T06:36:52;100405.47;;;20.12;56.02
44198;BME280;30157;55.512;37.764;2023-09-18T06:39:18;100461.31;;;20.49;55.65
44198;BME280;30157;55.512;37.764;2023-09-18T06:41:45;100470.41;;;20.40;55.29
44198;BME280;30157;55.512;37.764;2023-09-18T06:44:12;100434.28;;;19.92;55.96
44198;BME280;30157;55.512;37.764;2023-09-18T06:46:38;100445.53;;;19.97;55.81
44198;BME280;30157;55.512;37.764;2023-09-18T06:49:05;100435.06;;;20.21;55.69
44198;BME280;30157;55.512;37.764;2023-09-18T06:51:31;100425.94;;;20.80;53.74
44198;BME280;30157;55.512;37.764;2023-09-18T06:53:57;100378.47;;;21.02;52.87
44198;BME280;30157;55.512;37.764;2023-09-18T06:56:26;100416.63;;;21.61;52.28
44198;BME280;30157;55.512;37.764;2023-09-18T06:58:52;100429.13;;;22.20;51.53
44198;BME280;30157;55.512;37.764;2023-09-18T07:01:18;100414.41;;;21.93;50.25
44198;BME280;30157;55.512;37.764;2023-09-18T07:03:48;100443.53;;;21.92;51.03
44198;BME280;30157;55.512;37.764;2023-09-18T07:06:14;100437.13;;;22.39;50.20
44198;BME280;30157;55.512;37.764;2023-09-18T07:08:48;100453.47;;;22.48;49.60
44198;BME280;30157;55.512;37.764;2023-09-18T07:11:17;100436.00;;;22.03;50.80
44198;BME280;30157;55.512;37.764;2023-09-18T07:13:43;100373.88;;;21.29;51.13
44198;BME280;30157;55.512;37.764;2023-09-18T07:16:10;100456.03;;;21.20;52.26
44198;BME280;30157;55.512;37.764;2023-09-18T07:18:36;100461.41;;;20.71;53.07
44198;BME280;30157;55.512;37.764;2023-09-18T07:21:02;100467.00;;;20.37;54.50
44198;BME280;30157;55.512;37.764;2023-09-18T07:23:28;100367.91;;;21.24;51.63
44198;BME280;30157;55.512;37.764;2023-09-18T07:25:54;100445.22;;;22.36;50.52
44198;BME280;30157;55.512;37.764;2023-09-18T07:28:20;100448.00;;;22.72;49.20
44198;BME280;30157;55.512;37.764;2023-09-18T07:30:48;100383.59;;;21.49;49.75
44198;BME280;30157;55.512;37.764;2023-09-18T07:33:14;100393.97;;;20.88;50.90
44198;BME280;30157;55.512;37.764;2023-09-18T07:35:50;100444.06;;;20.64;52.63
44198;BME280;30157;55.512;37.764;2023-09-18T07:38:19;100382.78;;;20.08;52.87
44198;BME280;30157;55.512;37.764;2023-09-18T07:40:45;100468.53;;;20.68;53.40
44198;BME280;30157;55.512;37.764;2023-09-18T07:43:13;100470.47;;;22.43;50.31
44198;BME280;30157;55.512;37.764;2023-09-18T07:45:39;100462.53;;;23.59;47.10
44198;BME280;30157;55.512;37.764;2023-09-18T07:48:08;100421.53;;;23.83;45.91
44198;BME280;30157;55.512;37.764;2023-09-18T07:50:34;100461.69;;;23.39;46.91
44198;BME280;30157;55.512;37.764;2023-09-18T07:53:01;100456.31;;;22.84;47.69
44198;BME280;30157;55.512;37.764;2023-09-18T07:55:27;100474.25;;;22.77;48.43
44198;BME280;30157;55.512;37.764;2023-09-18T07:57:53;100437.19;;;22.17;49.14
44198;BME280;30157;55.512;37.764;2023-09-18T08:00:19;100476.63;;;22.01;50.05
44198;BME280;30157;55.512;37.764;2023-09-18T08:02:49;100396.59;;;21.11;50.96
44198;BME280;30157;55.512;37.764;2023-09-18T08:05:16;100473.97;;;21.12;51.67
44198;BME280;30157;55.512;37.764;2023-09-18T08:07:43;100439.97;;;20.55;52.87
44198;BME280;30157;55.512;37.764;2023-09-18T08:10:09;100443.56;;;20.29;53.14
44198;BME280;30157;55.512;37.764;2023-09-18T08:12:35;100468.75;;;20.11;54.03
44198;BME280;30157;55.512;37.764;2023-09-18T08:15:01;100438.81;;;19.60;54.78
44198;BME280;30157;55.512;37.764;2023-09-18T08:17:31;100471.72;;;19.73;55.29
44198;BME280;30157;55.512;37.764;2023-09-18T08:19:57;100476.50;;;20.66;54.02
44198;BME280;30157;55.512;37.764;2023-09-18T08:22:24;100404.16;;;20.50;52.91
44198;BME280;30157;55.512;37.764;2023-09-18T08:24:52;100478.09;;;20.95;52.76
44198;BME280;30157;55.512;37.764;2023-09-18T08:27:19;100440.09;;;22.31;50.00
44198;BME280;30157;55.512;37.764;2023-09-18T08:29:46;100467.56;;;24.00;46.97
44198;BME280;30157;55.512;37.764;2023-09-18T08:32:13;100448.56;;;24.94;45.13
44198;BME280;30157;55.512;37.764;2023-09-18T08:34:39;100459.78;;;25.47;43.09
44198;BME280;30157;55.512;37.764;2023-09-18T08:37:05;100443.66;;;25.66;42.52
44198;BME280;30157;55.512;37.764;2023-09-18T08:39:31;100461.75;;;25.59;42.78
44198;BME280;30157;55.512;37.764;2023-09-18T08:42:03;100362.59;;;25.27;41.28
44198;BME280;30157;55.512;37.764;2023-09-18T08:44:30;100456.84;;;25.98;41.90
44198;BME280;30157;55.512;37.764;2023-09-18T08:46:58;100462.53;;;25.61;42.42
44198;BME280;30157;55.512;37.764;2023-09-18T08:49:25;100390.44;;;25.82;41.27
44198;BME280;30157;55.512;37.764;2023-09-18T08:51:54;100381.75;;;26.66;40.15
44198;BME280;30157;55.512;37.764;2023-09-18T08:54:22;100432.84;;;26.88;39.87
44198;BME280;30157;55.512;37.764;2023-09-18T08:56:53;100390.56;;;25.95;39.53
44198;BME280;30157;55.512;37.764;2023-09-18T08:59:21;100388.16;;;25.13;41.75
44198;BME280;30157;55.512;37.764;2023-09-18T09:01:50;100447.28;;;25.79;41.71
44198;BME280;30157;55.512;37.764;2023-09-18T09:04:15;100376.53;;;24.35;42.93
44198;BME280;30157;55.512;37.764;2023-09-18T09:06:41;100452.38;;;24.04;44.60
44198;BME280;30157;55.512;37.764;2023-09-18T09:09:07;100410.41;;;22.85;46.37
44198;BME280;30157;55.512;37.764;2023-09-18T09:11:34;100455.75;;;22.56;47.80
44198;BME280;30157;55.512;37.764;2023-09-18T09:14:14;100439.31;;;22.29;47.85
44198;BME280;30157;55.512;37.764;2023-09-18T09:16:51;100363.28;;;21.52;49.25
44198;BME280;30157;55.512;37.764;2023-09-18T09:19:37;100453.19;;;22.13;49.30
44198;BME280;30157;55.512;37.764;2023-09-18T09:22:08;100451.19;;;21.98;49.88
44198;BME280;30157;55.512;37.764;2023-09-18T09:24:40;100444.41;;;21.92;49.89
44198;BME280;30157;55.512;37.764;2023-09-18T09:27:06;100404.09;;;21.67;49.68
44198;BME280;30157;55.512;37.764;2023-09-18T09:29:32;100449.13;;;21.84;50.11
44198;BME280;30157;55.512;37.764;2023-09-18T09:32:17;100445.44;;;21.68;50.54
44198;BME280;30157;55.512;37.764;2023-09-18T09:34:44;100302.19;;;20.74;50.71
44198;BME280;30157;55.512;37.764;2023-09-18T09:37:11;100373.38;;;21.20;50.72
44198;BME280;30157;55.512;37.764;2023-09-18T09:39:51;100362.91;;;21.18;50.81
44198;BME280;30157;55.512;37.764;2023-09-18T09:42:19;100418.75;;;21.52;50.61
44198;BME280;30157;55.512;37.764;2023-09-18T09:45:04;100451.19;;;21.55;50.84
44198;BME280;30157;55.512;37.764;2023-09-18T09:47:35;100379.59;;;20.96;51.29
44198;BME280;30157;55.512;37.764;2023-09-18T09:50:09;100373.44;;;20.96;51.07
44198;BME280;30157;55.512;37.764;2023-09-18T09:52:36;100459.41;;;21.47;51.37
44198;BME280;30157;55.512;37.764;2023-09-18T09:55:28;100441.84;;;21.46;50.86
44198;BME280;30157;55.512;37.764;2023-09-18T09:58:01;100394.69;;;21.37;50.96
44198;BME280;30157;55.512;37.764;2023-09-18T10:00:43;100464.28;;;22.01;50.00
44198;BME280;30157;55.512;37.764;2023-09-18T10:03:16;100479.63;;;22.34;49.63
44198;BME280;30157;55.512;37.764;2023-09-18T10:05:54;100451.88;;;22.03;49.64
44198;BME280;30157;55.512;37.764;2023-09-18T10:08:30;100471.06;;;21.86;49.87
44198;BME280;30157;55.512;37.764;2023-09-18T10:11:08;100434.22;;;21.39;50.93
44198;BME280;30157;55.512;37.764;2023-09-18T10:13:41;100476.72;;;21.33;51.21
44198;BME280;30157;55.512;37.764;2023-09-18T10:16:14;100448.41;;;20.90;51.69
44198;BME280;30157;55.512;37.764;2023-09-18T10:19:00;100482.97;;;21.06;52.14
44198;BME280;30157;55.512;37.764;2023-09-18T10:21:33;100480.19;;;21.33;51.78
44198;BME280;30157;55.512;37.764;2023-09-18T10:26:32;100438.88;;;21.76;50.04
44198;BME280;30157;55.512;37.764;2023-09-18T10:29:04;100440.06;;;22.72;49.01
44198;BME280;30157;55.512;37.764;2023-09-18T10:31:37;100390.59;;;22.74;48.44
44198;BME280;30157;55.512;37.764;2023-09-18T10:34:06;100453.59;;;23.79;47.35
44198;BME280;30157;55.512;37.764;2023-09-18T10:36:34;100419.91;;;23.63;46.78
44198;BME280;30157;55.512;37.764;2023-09-18T10:39:01;100323.22;;;22.81;47.12
44198;BME280;30157;55.512;37.764;2023-09-18T10:41:34;100437.81;;;23.22;47.13
44198;BME280;30157;55.512;37.764;2023-09-18T10:44:01;100441.94;;;22.70;47.47
44198;BME280;30157;55.512;37.764;2023-09-18T10:46:30;100429.72;;;22.06;48.92
44198;BME280;30157;55.512;37.764;2023-09-18T10:48:56;100463.47;;;21.78;50.13
44198;BME280;30157;55.512;37.764;2023-09-18T10:51:24;100467.19;;;21.28;51.18
44198;BME280;30157;55.512;37.764;2023-09-18T10:53:51;100432.34;;;20.73;52.49
44198;BME280;30157;55.512;37.764;2023-09-18T10:56:21;100456.06;;;20.47;53.28
44198;BME280;30157;55.512;37.764;2023-09-18T10:58:56;100437.78;;;20.18;53.67
44198;BME280;30157;55.512;37.764;2023-09-18T11:01:23;100457.00;;;20.21;54.65
44198;BME280;30157;55.512;37.764;2023-09-18T11:03:50;100354.28;;;19.42;55.17
44198;BME280;30157;55.512;37.764;2023-09-18T11:06:16;100455.41;;;19.90;55.99
44198;BME280;30157;55.512;37.764;2023-09-18T11:08:48;100424.91;;;19.56;57.00
44198;BME280;30157;55.512;37.764;2023-09-18T11:11:18;100442.44;;;19.56;57.85
44198;BME280;30157;55.512;37.764;2023-09-18T11:13:47;100443.47;;;19.52;58.54
44198;BME280;30157;55.512;37.764;2023-09-18T11:16:36;100429.69;;;19.43;59.32
44198;BME280;30157;55.512;37.764;2023-09-18T11:21:34;100458.00;;;19.63;58.75
44198;BME280;30157;55.512;37.764;2023-09-18T11:24:04;100440.53;;;19.61;58.60
44198;BME280;30157;55.512;37.764;2023-09-18T11:26:34;100453.28;;;20.02;57.24
44198;BME280;30157;55.512;37.764;2023-09-18T11:29:05;100442.06;;;19.95;57.33
44198;BME280;30157;55.512;37.764;2023-09-18T11:31:54;100457.00;;;20.21;57.71
44198;BME280;30157;55.512;37.764;2023-09-18T11:36:46;100439.41;;;20.47;56.23
44198;BME280;30157;55.512;37.764;2023-09-18T11:39:12;100443.03;;;20.68;55.92
44198;BME280;30157;55.512;37.764;2023-09-18T11:41:39;100448.06;;;21.00;55.30
44198;BME280;30157;55.512;37.764;2023-09-18T11:46:46;100441.94;;;20.99;54.92
44198;BME280;30157;55.512;37.764;2023-09-18T11:49:13;100469.00;;;21.04;54.94
44198;BME280;30157;55.512;37.764;2023-09-18T11:51:40;100446.03;;;20.83;55.01
44198;BME280;30157;55.512;37.764;2023-09-18T11:54:07;100404.03;;;20.78;54.54
44198;BME280;30157;55.512;37.764;2023-09-18T11:56:33;100458.69;;;21.20;54.23
44198;BME280;30157;55.512;37.764;2023-09-18T11:59:00;100440.53;;;22.61;51.20
44198;BME280;30157;55.512;37.764;2023-09-18T12:01:31;100386.94;;;24.04;47.49
44198;BME280;30157;55.512;37.764;2023-09-18T12:04:02;100465.00;;;25.64;44.34
44198;BME280;30157;55.512;37.764;2023-09-18T12:06:38;100444.66;;;24.50;45.77
44198;BME280;30157;55.512;37.764;2023-09-18T12:09:07;100370.66;;;23.77;46.09
44198;BME280;30157;55.512;37.764;2023-09-18T12:12:00;100434.72;;;23.31;47.26
44198;BME280;30157;55.512;37.764;2023-09-18T12:14:32;100447.47;;;22.64;49.24
44198;BME280;30157;55.512;37.764;2023-09-18T12:17:02;100389.28;;;22.45;48.75
44198;BME280;30157;55.512;37.764;2023-09-18T12:19:30;100426.44;;;22.42;49.64
44198;BME280;30157;55.512;37.764;2023-09-18T12:21:56;100393.72;;;22.03;49.83
44198;BME280;30157;55.512;37.764;2023-09-18T12:24:26;100375.03;;;21.67;50.75
44198;BME280;30157;55.512;37.764;2023-09-18T12:26:53;100452.31;;;22.13;50.75
44198;BME280;30157;55.512;37.764;2023-09-18T12:29:22;100466.09;;;23.01;48.75
44198;BME280;30157;55.512;37.764;2023-09-18T12:31:49;100280.41;;;21.56;49.27
44198;BME280;30157;55.512;37.764;2023-09-18T12:34:20;100459.09;;;22.20;50.12
44198;BME280;30157;55.512;37.764;2023-09-18T12:36:50;100442.88;;;21.87;50.72
44198;BME280;30157;55.512;37.764;2023-09-18T12:39:17;100426.94;;;22.09;50.09
44198;BME280;30157;55.512;37.764;2023-09-18T12:41:46;100452.63;;;21.40;51.86
44198;BME280;30157;55.512;37.764;2023-09-18T12:44:13;100377.03;;;20.71;52.58
44198;BME280;30157;55.512;37.764;2023-09-18T12:46:43;100456.69;;;21.71;51.92
44198;BME280;30157;55.512;37.764;2023-09-18T12:49:20;100463.09;;;21.88;51.50
44198;BME280;30157;55.512;37.764;2023-09-18T12:52:01;100453.78;;;22.80;49.17
44198;BME280;30157;55.512;37.764;2023-09-18T12:54:38;100376.19;;;23.37;46.56
44198;BME280;30157;55.512;37.764;2023-09-18T12:57:05;100423.94;;;23.17;47.23
44198;BME280;30157;55.512;37.764;2023-09-18T12:59:35;100427.69;;;21.92;50.13
44198;BME280;30157;55.512;37.764;2023-09-18T13:02:02;100451.38;;;21.27;51.87